Details From SAVC - COMODORO RIVADAVIA
To SCBA - Balmaceda
Flight Number -
Tags generated
Created
Modified
Stats Distance 177 nm / 328 km
Max Altitude 18,200 ft / 5,547 m
Waypoints 4
Social Downloads 2
Likes 0
Share VATSIM

Download

Looking for another format? Having issues loading an existing format? Contact us
Advertisement - Login to hide

Notes

Basic altitude profile: - Ascent Rate: 1500ft/min - Ascent Speed: 180kts - Cruise Altitude: 10000ft - Cruise Speed: 250kts - Descent Rate: 1500ft/min - Descent Speed: 180kts Options: - Use NATs: yes - Use PACOTS: yes - Use low airways: yes - Use high airways: yes

Route

SAVC ETASO W58 AROPO SCBA

ID Type Via Altitude Latitude Longitude Leg Dist Tot Dist Heading (true) Name
O SAVC APT - 0 ft / 0 m -45.78535˚ -67.46556˚ - 0 nm - COMODORO RIVADAVIA
ETASO FIX - 18,200 ft / 5,547 m -45.83306˚ -68.68389˚ 51 nm 51 nm 266° / 267° -
AROPO FIX W58 (AWY-LO) 7,500 ft / 2,286 m -45.90000˚ -71.19444˚ 105 nm 156 nm 267° / 269° -
O SCBA APT - 0 ft / 0 m -45.91602˚ -71.68947˚ 20 nm 176 nm 267° / 268° Balmaceda

Altitude Profile

Advertisement - Login to hide

Weather


0- 5 10 15 20 25 30 35+ Temperature / ° C

Clouds and Precipitation
Forecast for 2017-12-18 12:00 UTC. Updated 2 minutes ago

Ground ~20,000 ft ~40,000 ft Winds

SAVC

Details ICAO SAVC (CRD)
Name COMODORO RIVADAVIA
Region Argentina
Timezone America/Argentina/Catamarca (UTC-3.0)
Stats Elevation 190 ft / 58 m (AMSL)
Location -45.785349° -67.465561°
Runways 1
Magnetic Variation 6.303° E

METAR

SAVC 180900Z 27018G32KT 240V320 CAVOK 12/02 Q1010

Decode

TAF

TAF SAVC 180500Z 1806/1906 27025KT CAVOK TX27/1819Z TN13/1810Z TEMPO 1806/1809 27025G37KT BECMG 1814/1816 27017KT PROB30 TEMPO 1819/1822 05010KT

Decode

Departure Runways

ID Width Length Bearing (true) Bearing (mag) Surface Threshold Offset Overrun Length
07 164 ft / 50 m 9,269 ft / 2,825 m 78.97° 72.67° Concrete 0 ft / 0 m 492 ft / 150 m
25 164 ft / 50 m 9,269 ft / 2,825 m 258.95° 252.65° Concrete 0 ft / 0 m 820 ft / 250 m

SCBA

Details ICAO SCBA (BBA)
Name Balmaceda
Region Chile
Timezone America/Santiago (UTC-3.0)
Stats Elevation 1,654 ft / 504 m (AMSL)
Location -45.916025° -71.689470°
Runways 1
Magnetic Variation 9.886° E

METAR

SCBA 180900Z AUTO 32015KT CAVOK 07/03 Q1013

Decode

TAF

TAF SCBA 180433Z 1806/1906 30020G30KT 9999 SCT040 TN04/1808Z TX15/1819Z BECMG 1818/1820 CAVOK

Decode

Destination Runways

ID Width Length Bearing (true) Bearing (mag) Surface Threshold Offset Overrun Length
09 148 ft / 45 m 8,213 ft / 2,503 m 89.01° 79.12° Asphalt 0 ft / 0 m 180 ft / 55 m
27 148 ft / 45 m 8,213 ft / 2,503 m 268.99° 259.10° Asphalt 0 ft / 0 m 190 ft / 58 m